Time;durP1;ratioP1;P1;durP2;ratioP2;P2;SDS_P1;SDS_P2;PMS_P1;PMS_P2;Temp;Humidity;BMP_temperature;BMP_pressure;BME280_temperature;BME280_humidity;BME280_pressure;Samples;Min_cycle;Max_cycle;Signal;HPM_P1;HPM_P2
2022/05/07 00:02:13;;;;;;;11.23;4.65;;;;;;;13.62;67.34;100920.31;4982202;28;20075;-40
2022/05/07 00:04:40;;;;;;;9.13;4.15;;;;;;;13.62;67.75;100910.72;4981764;28;20057;-43
2022/05/07 00:07:07;;;;;;;11.25;4.40;;;;;;;13.60;67.67;100919.41;4981230;28;20128;-43
2022/05/07 00:09:35;;;;;;;11.85;4.63;;;;;;;13.57;67.62;100916.81;4978484;28;20050;-40
2022/05/07 00:12:02;;;;;;;11.00;4.60;;;;;;;13.56;67.99;100915.09;4984254;28;20841;-39
2022/05/07 00:14:29;;;;;;;11.43;4.88;;;;;;;13.56;68.43;100915.97;4977069;28;20105;-42
2022/05/07 00:19:43;;;;;;;12.18;4.40;;;;;;;13.55;68.28;100914.25;4981373;28;20058;-45
2022/05/07 00:22:11;;;;;;;12.68;4.45;;;;;;;13.55;67.00;100914.25;4981648;28;20057;-40
2022/05/07 00:24:56;;;;;;;11.43;4.95;;;;;;;13.53;67.68;100913.34;4981798;28;20112;-40
2022/05/07 00:27:25;;;;;;;9.68;4.65;;;;;;;13.50;67.93;100910.75;4981086;28;20050;-43
2022/05/07 00:29:53;;;;;;;10.77;4.70;;;;;;;13.47;68.64;100905.50;4983312;28;20062;-41
2022/05/07 00:32:38;;;;;;;12.95;4.80;;;;;;;13.46;68.84;100909.00;4977365;28;20049;-41
2022/05/07 00:35:23;;;;;;;8.52;4.28;;;;;;;13.46;68.19;100902.06;4985484;28;20041;-43
2022/05/07 00:38:08;;;;;;;11.25;4.60;;;;;;;13.45;67.51;100902.06;5002461;28;20048;-41
2022/05/07 00:40:34;;;;;;;10.77;5.97;;;;;;;13.46;68.15;100898.59;4998849;28;20586;-42
2022/05/07 00:43:01;;;;;;;10.05;4.63;;;;;;;13.46;68.94;100902.06;5006003;28;20104;-42
2022/05/07 00:45:28;;;;;;;9.68;4.35;;;;;;;13.48;67.39;100895.13;5001322;28;20100;-45
2022/05/07 00:47:54;;;;;;;10.15;4.40;;;;;;;13.47;67.44;100901.19;4999669;28;20076;-40
2022/05/07 00:53:08;;;;;;;11.40;4.28;;;;;;;13.45;68.91;100896.84;5003646;28;20050;-43
2022/05/07 00:55:34;;;;;;;10.40;5.03;;;;;;;13.43;67.94;100894.25;4998888;28;20100;-41
2022/05/07 00:58:02;;;;;;;14.02;5.05;;;;;;;13.42;68.87;100894.25;4995775;28;20473;-43
2022/05/07 01:00:28;;;;;;;13.10;5.85;;;;;;;13.42;68.34;100897.72;4998611;28;20045;-40
2022/05/07 01:02:55;;;;;;;10.80;4.30;;;;;;;13.42;68.22;100896.84;5001451;28;20054;-42
2022/05/07 01:05:21;;;;;;;12.55;4.80;;;;;;;13.42;68.36;100897.72;4998787;28;20050;-44
2022/05/07 01:07:49;;;;;;;11.90;4.55;;;;;;;13.43;68.57;100898.59;5003483;28;20057;-41
2022/05/07 01:10:16;;;;;;;10.70;4.35;;;;;;;13.44;69.23;100901.19;4995150;28;20050;-41
2022/05/07 01:12:42;;;;;;;11.50;4.50;;;;;;;13.42;69.29;100900.34;5001617;28;20053;-40
2022/05/07 01:15:10;;;;;;;10.85;4.43;;;;;;;13.42;68.80;100902.06;4994889;28;20050;-40
2022/05/07 01:17:38;;;;;;;10.68;4.68;;;;;;;13.40;68.91;100893.41;4983148;28;20062;-40
2022/05/07 01:20:09;;;;;;;11.48;4.78;;;;;;;13.41;68.85;100900.34;4995189;28;20069;-45
2022/05/07 01:22:36;;;;;;;10.38;4.63;;;;;;;13.40;69.55;100898.59;5001756;28;20136;-41
2022/05/07 01:25:04;;;;;;;10.15;4.53;;;;;;;13.37;69.64;100900.34;5002765;28;20072;-40
2022/05/07 01:27:30;;;;;;;11.45;4.80;;;;;;;13.35;69.18;100901.22;5002158;28;20112;-45
2022/05/07 01:29:57;;;;;;;9.25;4.35;;;;;;;13.33;70.31;100898.59;4999649;28;20077;-41
2022/05/07 01:32:24;;;;;;;12.40;4.88;;;;;;;13.34;69.35;100896.88;4999974;28;20042;-47
2022/05/07 01:34:53;;;;;;;9.55;4.22;;;;;;;13.32;70.50;100891.69;5000598;28;20073;-41
2022/05/07 01:37:20;;;;;;;11.68;4.95;;;;;;;13.33;70.23;100888.19;4997779;28;20498;-42
2022/05/07 01:39:47;;;;;;;10.73;5.68;;;;;;;13.31;69.36;100895.13;5005239;28;20583;-45
2022/05/07 01:42:13;;;;;;;10.45;4.57;;;;;;;13.31;70.49;100894.28;5003450;28;20054;-42
2022/05/07 01:44:40;;;;;;;7.22;3.83;;;;;;;13.32;70.32;100894.28;5007972;28;20096;-46
2022/05/07 01:49:53;;;;;;;8.73;4.45;;;;;;;13.31;69.52;100895.13;5002390;28;20445;-44
2022/05/07 01:52:20;;;;;;;10.13;4.38;;;;;;;13.31;69.91;100895.13;5005145;28;20049;-39
2022/05/07 01:54:46;;;;;;;9.20;4.68;;;;;;;13.33;70.21;100892.53;5004543;28;20046;-39
2022/05/07 01:57:13;;;;;;;11.43;4.57;;;;;;;13.33;69.72;100897.72;5005743;28;20050;-39
2022/05/07 01:59:40;;;;;;;10.02;6.15;;;;;;;13.33;70.36;100898.59;5007528;28;20709;-40
2022/05/07 02:02:06;;;;;;;10.90;4.60;;;;;;;13.32;69.83;100896.88;5004008;28;20453;-40
2022/05/07 02:04:51;;;;;;;9.27;4.60;;;;;;;13.32;69.22;100899.47;5001837;28;20081;-41
2022/05/07 02:07:18;;;;;;;8.40;4.28;;;;;;;13.32;69.12;100896.00;5003759;28;20521;-40
2022/05/07 02:09:45;;;;;;;11.40;5.93;;;;;;;13.32;69.34;100894.28;5001869;28;20661;-43
2022/05/07 02:12:11;;;;;;;12.07;4.15;;;;;;;13.33;69.72;100897.72;5008114;28;20054;-41
2022/05/07 02:14:38;;;;;;;8.52;4.40;;;;;;;13.32;70.28;100896.88;5005139;28;20580;-43
2022/05/07 02:17:05;;;;;;;10.15;4.80;;;;;;;13.32;69.91;100898.59;5007023;28;20437;-39
2022/05/07 02:19:31;;;;;;;9.88;4.53;;;;;;;13.30;69.38;100896.00;5002579;28;20041;-42
2022/05/07 02:21:58;;;;;;;8.95;4.43;;;;;;;13.30;69.91;100896.00;5003240;28;20046;-38
2022/05/07 02:24:25;;;;;;;8.95;4.30;;;;;;;13.28;70.06;100897.75;5001869;28;20042;-39
2022/05/07 02:26:51;;;;;;;9.50;4.60;;;;;;;13.27;70.36;100901.19;5006471;28;20108;-40
2022/05/07 02:29:20;;;;;;;9.18;4.43;;;;;;;13.27;70.25;100903.78;5004399;28;20478;-40
2022/05/07 02:34:36;;;;;;;7.45;3.75;;;;;;;13.21;70.84;100903.81;5004264;28;20099;-45
2022/05/07 02:37:04;;;;;;;9.77;4.57;;;;;;;13.20;71.41;100897.72;5002240;28;20061;-40
2022/05/07 02:39:31;;;;;;;7.80;4.20;;;;;;;13.19;70.16;100908.13;5004968;28;20767;-40
2022/05/07 02:44:44;;;;;;;7.60;4.53;;;;;;;13.20;71.16;100904.66;5006637;28;20072;-42
2022/05/07 02:47:10;;;;;;;8.57;4.72;;;;;;;13.20;71.32;100908.13;5005185;28;20648;-42
2022/05/07 02:49:37;;;;;;;9.38;4.60;;;;;;;13.21;70.30;100903.81;5002221;28;20053;-40
2022/05/07 02:52:04;;;;;;;8.75;4.78;;;;;;;13.20;70.33;100902.06;5000086;28;20073;-41
2022/05/07 02:54:30;;;;;;;8.95;4.72;;;;;;;13.20;71.72;100907.25;5000337;28;20116;-43
2022/05/07 02:56:58;;;;;;;8.50;4.50;;;;;;;13.19;71.16;100901.22;5003795;28;20081;-39
2022/05/07 02:59:25;;;;;;;9.30;3.92;;;;;;;13.20;70.83;100917.66;5001755;28;20088;-39
2022/05/07 03:01:51;;;;;;;8.15;3.97;;;;;;;13.18;70.62;100915.09;4999290;28;20046;-39
2022/05/07 03:04:19;;;;;;;8.07;3.63;;;;;;;13.16;71.77;100913.31;5002473;28;20441;-41
2022/05/07 03:06:45;;;;;;;6.80;3.33;;;;;;;13.13;71.23;100918.56;5004324;28;20073;-41
2022/05/07 03:09:12;;;;;;;7.03;3.55;;;;;;;13.13;71.42;100918.56;5001808;28;20050;-44
2022/05/07 03:11:38;;;;;;;7.18;3.42;;;;;;;13.09;71.84;100925.47;5001650;28;20081;-40
2022/05/07 03:14:06;;;;;;;7.40;3.50;;;;;;;13.06;72.64;100930.66;5001364;28;20053;-39
2022/05/07 03:16:35;;;;;;;7.45;3.55;;;;;;;13.04;72.50;100933.25;5001942;28;20461;-40
2022/05/07 03:19:02;;;;;;;6.30;3.00;;;;;;;13.00;72.74;100926.31;5006602;28;20042;-39
2022/05/07 03:21:29;;;;;;;7.57;3.80;;;;;;;13.02;72.02;100937.59;5002976;28;20041;-39
2022/05/07 03:23:56;;;;;;;8.05;3.95;;;;;;;12.93;72.67;100929.78;5003269;28;20049;-42
2022/05/07 03:26:22;;;;;;;9.25;4.00;;;;;;;12.93;73.62;100932.38;5004445;28;20049;-39
2022/05/07 03:28:49;;;;;;;8.05;3.90;;;;;;;12.91;73.78;100934.13;4996079;28;20054;-39
2022/05/07 03:31:19;;;;;;;8.90;3.72;;;;;;;12.87;72.71;100930.63;5000516;28;20046;-40
2022/05/07 03:33:47;;;;;;;8.65;3.95;;;;;;;12.87;73.11;100934.97;5005503;28;20085;-40
2022/05/07 03:36:15;;;;;;;7.22;3.30;;;;;;;12.87;73.95;100942.78;5005972;28;20046;-42
2022/05/07 03:38:42;;;;;;;10.23;4.60;;;;;;;12.85;73.34;100941.06;5002534;28;20096;-38
2022/05/07 03:41:09;;;;;;;10.93;5.00;;;;;;;12.84;73.94;100947.09;5001911;28;20132;-42
2022/05/07 03:43:36;;;;;;;10.15;4.18;;;;;;;12.82;74.14;100953.16;4998465;28;20100;-38
2022/05/07 03:46:04;;;;;;;10.98;5.00;;;;;;;12.80;73.87;100953.16;5000920;28;20050;-39
2022/05/07 03:48:32;;;;;;;11.48;5.00;;;;;;;12.80;73.05;100944.50;5000258;28;20052;-40
2022/05/07 03:50:59;;;;;;;12.40;5.25;;;;;;;12.76;73.40;100954.00;5002504;28;20096;-39
2022/05/07 03:53:29;;;;;;;12.38;5.20;;;;;;;12.77;73.46;100955.75;5001146;28;20041;-38
2022/05/07 03:58:35;;;;;;;15.00;4.97;;;;;;;12.74;73.46;100955.75;5023570;28;20809;-40
2022/05/07 04:01:09;;;;;;;10.82;5.20;;;;;;;12.72;74.08;100967.88;5023180;28;20053;-42
2022/05/07 04:03:36;;;;;;;15.43;5.20;;;;;;;12.67;74.02;100959.19;5019633;28;20065;-40
2022/05/07 04:06:03;;;;;;;12.73;6.15;;;;;;;12.64;73.90;100964.38;5018353;28;20566;-41
2022/05/07 04:08:30;;;;;;;12.73;5.57;;;;;;;12.60;74.51;100964.34;5023243;28;20062;-40
2022/05/07 04:10:56;;;;;;;11.18;5.57;;;;;;;12.60;74.39;100964.34;5021834;28;20049;-40
2022/05/07 04:13:23;;;;;;;14.30;6.32;;;;;;;12.62;73.75;100971.28;5015555;28;20117;-41
2022/05/07 04:15:50;;;;;;;12.75;5.63;;;;;;;12.62;73.03;100968.69;5023090;28;20049;-40
2022/05/07 04:18:17;;;;;;;11.80;5.32;;;;;;;12.58;74.30;100966.09;5015802;28;20053;-44
2022/05/07 04:20:44;;;;;;;13.15;5.35;;;;;;;12.59;73.59;100973.03;5009874;28;20049;-41
2022/05/07 04:23:11;;;;;;;11.95;4.93;;;;;;;12.59;73.41;100980.81;5014597;28;20053;-39
2022/05/07 04:25:38;;;;;;;13.05;5.70;;;;;;;12.57;74.00;100974.75;5019512;28;20049;-41
2022/05/07 04:28:05;;;;;;;13.38;5.53;;;;;;;12.54;73.40;100984.25;5009966;28;20046;-42
2022/05/07 04:30:32;;;;;;;15.40;6.00;;;;;;;12.53;73.76;100988.59;5014758;28;20100;-43
2022/05/07 04:32:58;;;;;;;13.30;4.55;;;;;;;12.46;74.05;100986.81;5016552;28;20049;-42
2022/05/07 04:35:25;;;;;;;12.15;5.60;;;;;;;12.46;73.92;100981.63;5012719;28;20061;-46
2022/05/07 04:37:52;;;;;;;10.00;5.18;;;;;;;12.42;73.31;100982.47;5016258;28;20050;-40
2022/05/07 04:40:36;;;;;;;13.13;5.43;;;;;;;12.37;72.47;100989.38;5017225;28;20052;-44
2022/05/07 04:43:02;;;;;;;12.50;5.25;;;;;;;12.32;74.16;100989.34;5016498;28;20560;-42
2022/05/07 04:45:29;;;;;;;11.05;4.65;;;;;;;12.28;73.77;100992.78;5010526;28;20050;-41
2022/05/07 04:47:55;;;;;;;9.98;4.38;;;;;;;12.24;73.71;100991.03;5015394;28;20100;-39
2022/05/07 04:50:22;;;;;;;10.93;4.72;;;;;;;12.19;74.25;101004.00;5016721;28;20099;-46
2022/05/07 04:52:49;;;;;;;10.65;3.50;;;;;;;12.12;73.87;100997.06;5011651;28;20049;-40
2022/05/07 04:55:16;;;;;;;11.10;4.55;;;;;;;12.12;74.09;101012.63;5011395;28;20052;-44
2022/05/07 04:57:42;;;;;;;12.05;4.85;;;;;;;12.11;73.85;101013.47;5010852;28;20040;-42
2022/05/07 05:00:09;;;;;;;9.93;4.25;;;;;;;12.08;72.80;101022.09;5012994;28;20046;-42
2022/05/07 05:02:36;;;;;;;9.98;4.30;;;;;;;12.06;73.48;101024.69;5015449;28;20054;-43
2022/05/07 05:05:03;;;;;;;11.35;3.53;;;;;;;12.00;73.16;101019.44;5016888;28;20578;-40
2022/05/07 05:07:30;;;;;;;9.95;4.40;;;;;;;11.99;73.51;101028.06;5011990;28;20054;-41
2022/05/07 05:09:56;;;;;;;6.97;3.55;;;;;;;11.98;72.86;101034.13;4999799;28;20689;-42
2022/05/07 05:12:23;;;;;;;10.98;3.50;;;;;;;11.95;72.87;101044.47;5004399;28;20069;-40
2022/05/07 05:15:06;;;;;;;10.20;3.22;;;;;;;11.91;73.96;101035.81;5000448;28;20081;-41
2022/05/07 05:17:33;;;;;;;;;;;;;;;11.79;74.42;101052.16;5001855;28;20042;-43
2022/05/07 05:20:01;;;;;;;9.77;3.72;;;;;;;11.86;72.89;101060.00;4997654;28;20369;-39
2022/05/07 05:22:29;;;;;;;10.52;3.80;;;;;;;11.88;72.80;101061.75;4986909;28;20058;-40
2022/05/07 05:24:55;;;;;;;8.88;3.83;;;;;;;11.88;73.57;101060.88;4996812;28;20046;-41
2022/05/07 05:27:23;;;;;;;7.03;3.42;;;;;;;11.90;73.28;101066.97;4995329;28;20049;-41
2022/05/07 05:29:49;;;;;;;9.38;3.22;;;;;;;11.89;72.55;101073.00;5004929;28;20136;-43
2022/05/07 05:32:18;;;;;;;10.10;3.90;;;;;;;11.87;73.46;101074.72;5005503;28;20050;-43
2022/05/07 05:34:49;;;;;;;8.73;2.97;;;;;;;11.85;72.54;101076.44;5002147;28;20050;-40
2022/05/07 05:37:16;;;;;;;7.45;2.92;;;;;;;11.85;72.67;101081.63;4998918;28;20418;-44
2022/05/07 05:39:44;;;;;;;7.55;2.92;;;;;;;11.81;71.97;101081.59;4993621;28;20050;-43
2022/05/07 05:42:11;;;;;;;9.27;3.70;;;;;;;11.81;72.83;101084.19;5002372;28;20400;-40
2022/05/07 05:44:39;;;;;;;6.95;2.78;;;;;;;11.86;72.27;101083.38;5001596;28;20100;-42
2022/05/07 05:47:06;;;;;;;8.20;3.20;;;;;;;11.88;72.48;101079.03;4999610;28;20046;-39
2022/05/07 05:49:33;;;;;;;6.25;2.95;;;;;;;11.87;72.91;101085.97;4999291;28;20054;-41
2022/05/07 05:52:02;;;;;;;7.60;3.15;;;;;;;11.92;71.94;101083.44;4997048;28;20513;-40
2022/05/07 05:54:29;;;;;;;9.82;2.92;;;;;;;12.11;72.89;101088.78;4997014;28;20105;-42
2022/05/07 05:56:57;;;;;;;6.45;2.38;;;;;;;12.25;71.20;101094.94;5002816;28;20756;-39
2022/05/07 05:59:24;;;;;;;7.95;2.97;;;;;;;12.31;71.93;101096.72;4995454;28;20387;-41
2022/05/07 06:01:52;;;;;;;5.45;2.47;;;;;;;12.29;71.47;101099.31;4995913;28;20046;-43
2022/05/07 06:04:19;;;;;;;6.97;3.42;;;;;;;12.23;71.41;101101.88;5001128;28;20437;-40
2022/05/07 06:06:45;;;;;;;9.23;2.72;;;;;;;12.18;71.63;101100.94;4995254;28;20072;-43
2022/05/07 06:09:12;;;;;;;6.85;2.45;;;;;;;12.18;70.84;101111.34;4995894;28;20057;-42
2022/05/07 06:11:39;;;;;;;4.20;1.73;;;;;;;12.14;70.38;101109.59;4994185;28;20112;-39
2022/05/07 06:14:06;;;;;;;5.00;1.92;;;;;;;12.14;70.60;101109.59;4998977;28;20053;-41
2022/05/07 06:16:50;;;;;;;7.43;2.30;;;;;;;12.13;70.27;101113.03;5001931;28;20061;-41
2022/05/07 06:19:17;;;;;;;5.05;1.67;;;;;;;12.14;70.33;101119.97;5005382;28;20053;-41
2022/05/07 06:21:43;;;;;;;5.95;2.25;;;;;;;12.14;70.04;101119.97;5000379;28;20077;-41
2022/05/07 06:29:43;;;;;;;4.88;1.88;;;;;;;12.31;71.29;101117.50;4985820;28;20077;-40
2022/05/07 06:32:10;;;;;;;4.65;2.33;;;;;;;12.39;70.49;101117.56;5004072;28;20650;-45
2022/05/07 06:34:36;;;;;;;5.80;3.20;;;;;;;12.43;69.91;101122.78;5001668;28;20462;-38
2022/05/07 06:37:03;;;;;;;4.93;2.33;;;;;;;12.47;69.97;101128.88;4997592;28;20092;-45
2022/05/07 06:39:30;;;;;;;6.25;2.25;;;;;;;12.49;70.94;101121.94;4999061;28;20050;-41
2022/05/07 06:41:57;;;;;;;6.43;2.58;;;;;;;12.51;70.43;101125.44;4999842;28;20057;-41
2022/05/07 06:44:24;;;;;;;5.50;2.35;;;;;;;12.62;70.46;101130.69;5000533;28;20768;-40
2022/05/07 06:46:51;;;;;;;7.65;2.60;;;;;;;12.87;70.04;101120.41;4989824;28;20054;-41
2022/05/07 06:49:18;;;;;;;4.68;2.42;;;;;;;13.13;68.46;101126.63;5002690;28;20046;-40
2022/05/07 06:51:45;;;;;;;5.45;2.45;;;;;;;13.47;68.67;101126.72;4998624;28;20081;-46
2022/05/07 06:54:12;;;;;;;7.35;2.50;;;;;;;13.82;68.19;101131.16;4996485;28;20120;-40
2022/05/07 06:56:38;;;;;;;2.95;1.70;;;;;;;14.10;66.62;101141.63;4997649;28;20059;-40
2022/05/07 06:59:05;;;;;;;4.47;2.22;;;;;;;14.40;66.48;101155.47;5001255;28;20053;-44
2022/05/07 07:01:31;;;;;;;4.18;2.40;;;;;;;14.66;65.68;101151.13;5002544;28;20054;-43
2022/05/07 07:03:58;;;;;;;4.38;1.83;;;;;;;14.89;64.62;101148.47;4991571;28;20058;-44
2022/05/07 07:06:25;;;;;;;5.30;1.67;;;;;;;15.08;63.60;101142.31;4996241;28;20176;-41
2022/05/07 07:08:53;;;;;;;4.97;1.77;;;;;;;15.25;62.77;101150.94;5000018;28;20050;-41
2022/05/07 07:11:21;;;;;;;4.70;1.50;;;;;;;15.51;62.09;101146.47;4994767;28;20046;-41
2022/05/07 07:13:48;;;;;;;4.13;2.08;;;;;;;15.68;61.08;101149.84;4981166;28;20092;-41
2022/05/07 07:16:15;;;;;;;2.80;1.25;;;;;;;15.82;60.52;101151.50;4975557;28;20053;-43
2022/05/07 07:18:42;;;;;;;5.60;1.40;;;;;;;16.04;60.41;101156.59;4980239;28;20746;-41
2022/05/07 07:21:11;;;;;;;4.47;1.33;;;;;;;16.29;59.42;101157.28;4994620;28;20557;-45
2022/05/07 07:23:38;;;;;;;4.60;1.77;;;;;;;16.42;58.93;101171.06;5001172;28;20054;-41
2022/05/07 07:26:04;;;;;;;3.97;1.00;;;;;;;16.55;58.04;101176.22;4997485;28;20054;-46
2022/05/07 07:28:32;;;;;;;3.00;1.50;;;;;;;16.63;58.37;101174.38;4993030;28;20038;-42
2022/05/07 07:30:58;;;;;;;3.60;1.88;;;;;;;16.73;57.24;101182.13;4997021;28;20041;-42
2022/05/07 07:33:25;;;;;;;4.50;1.88;;;;;;;16.61;57.44;101183.97;4992056;28;20054;-41
2022/05/07 07:35:52;;;;;;;4.35;2.22;;;;;;;16.44;57.43;101185.03;4991670;28;20050;-43
2022/05/07 07:38:25;;;;;;;3.75;1.80;;;;;;;16.28;57.72;101186.03;4998123;28;20054;-47
2022/05/07 07:40:53;;;;;;;3.80;1.48;;;;;;;16.31;58.19;101191.22;4998675;28;20506;-46
2022/05/07 07:43:20;;;;;;;5.10;1.92;;;;;;;16.29;57.08;101190.38;4993862;28;20057;-44
2022/05/07 07:48:34;;;;;;;7.93;1.63;;;;;;;15.99;57.63;101184.50;4994613;28;20057;-40
2022/05/07 07:51:00;;;;;;;4.80;2.28;;;;;;;15.78;57.44;101191.59;4992822;28;20046;-41
2022/05/07 07:53:27;;;;;;;7.32;1.70;;;;;;;15.48;58.26;101188.25;4996569;28;20054;-40
2022/05/07 07:55:54;;;;;;;3.92;2.55;;;;;;;15.43;58.66;101198.72;4998463;28;20842;-42
2022/05/07 07:58:21;;;;;;;4.88;2.33;;;;;;;15.27;58.66;101198.78;4998804;28;20053;-39
2022/05/07 08:00:47;;;;;;;5.57;1.80;;;;;;;15.18;59.74;101205.78;5003792;28;20049;-39
2022/05/07 08:03:16;;;;;;;6.05;3.60;;;;;;;15.13;59.77;101203.19;4995347;28;20650;-42
2022/05/07 08:05:44;;;;;;;6.88;3.05;;;;;;;15.09;59.95;101207.53;4987346;28;20108;-39
2022/05/07 08:13:46;;;;;;;3.95;1.65;;;;;;;16.03;59.26;101202.78;4994091;28;20109;-45
2022/05/07 08:16:14;;;;;;;5.35;1.63;;;;;;;16.65;57.90;101201.38;4997200;28;20565;-40
2022/05/07 08:18:41;;;;;;;3.83;2.03;;;;;;;16.93;57.56;101208.94;4997758;28;20049;-40
2022/05/07 08:21:09;;;;;;;6.05;2.33;;;;;;;17.02;56.47;101209.75;4997887;28;20652;-43
2022/05/07 08:23:37;;;;;;;3.50;1.55;;;;;;;16.99;56.28;101204.53;4993673;28;20573;-42
2022/05/07 08:26:06;;;;;;;4.95;2.10;;;;;;;17.10;55.64;101213.19;4997129;28;20050;-44
2022/05/07 08:28:35;;;;;;;7.80;2.45;;;;;;;17.28;56.33;101205.97;4995566;28;20040;-42
2022/05/07 08:31:02;;;;;;;5.22;2.45;;;;;;;17.59;55.49;101213.44;4997660;28;20562;-42
2022/05/07 08:33:31;;;;;;;5.88;2.50;;;;;;;18.03;55.32;101210.22;5000850;28;20056;-43
2022/05/07 08:35:58;;;;;;;5.57;2.80;;;;;;;18.32;54.66;101214.16;4990987;28;20053;-42
2022/05/07 08:38:25;;;;;;;6.55;2.15;;;;;;;18.53;53.26;101209.41;4995205;28;20097;-43
2022/05/07 08:40:53;;;;;;;5.10;2.15;;;;;;;18.71;53.57;101216.13;4994906;28;20049;-43
2022/05/07 08:43:20;;;;;;;6.72;2.75;;;;;;;18.87;53.16;101211.44;4998789;28;20192;-42
2022/05/07 08:45:46;;;;;;;7.93;1.95;;;;;;;19.07;52.26;101211.09;4997024;28;20116;-41
2022/05/07 08:48:13;;;;;;;3.83;1.88;;;;;;;19.31;51.88;101218.50;4999106;28;20037;-43
2022/05/07 08:50:40;;;;;;;4.45;1.90;;;;;;;19.50;51.38;101222.50;5003064;28;20112;-43
2022/05/07 08:53:09;;;;;;;6.03;2.40;;;;;;;19.71;51.25;101222.91;5002362;28;20056;-43
2022/05/07 08:55:36;;;;;;;5.40;2.58;;;;;;;19.98;50.17;101215.28;4996813;28;20149;-42
2022/05/07 08:58:03;;;;;;;4.30;1.48;;;;;;;20.18;50.26;101216.59;4999559;28;20046;-43
2022/05/07 09:00:30;;;;;;;5.82;2.10;;;;;;;20.28;49.11;101220.75;4998582;28;20057;-48
2022/05/07 09:03:00;;;;;;;6.55;2.00;;;;;;;20.46;49.32;101215.91;4996350;28;20053;-42
2022/05/07 09:05:31;;;;;;;;;;;;;;;20.84;48.91;101222.84;4992549;28;20847;-42
2022/05/07 09:07:59;;;;;;;4.63;2.28;;;;;;;21.26;49.31;101217.31;4987000;28;19930;-42
2022/05/07 09:10:27;;;;;;;5.05;2.58;;;;;;;21.66;48.37;101217.03;4990039;28;20108;-41
2022/05/07 09:12:58;;;;;;;6.65;2.83;;;;;;;21.81;48.31;101224.47;4992157;28;20069;-45
2022/05/07 09:15:25;;;;;;;6.13;3.38;;;;;;;22.14;47.23;101215.53;4985062;28;20050;-41
2022/05/07 09:17:52;;;;;;;5.05;2.30;;;;;;;22.44;46.03;101217.19;4982763;28;20050;-41
2022/05/07 09:20:19;;;;;;;7.20;3.25;;;;;;;22.38;45.86;101217.41;5001886;28;20060;-40
2022/05/07 09:25:26;;;;;;;7.95;4.22;;;;;;;22.05;45.09;101224.59;5012316;28;20419;-42
2022/05/07 09:27:56;;;;;;;6.80;3.92;;;;;;;21.79;46.57;101220.19;5002661;28;20049;-44
2022/05/07 09:30:25;;;;;;;6.03;3.85;;;;;;;22.00;46.45;101220.41;5015951;28;20049;-42
2022/05/07 09:32:53;;;;;;;7.22;3.95;;;;;;;22.27;47.07;101221.28;5010628;28;20064;-43
2022/05/07 09:38:13;;;;;;;8.32;4.43;;;;;;;22.72;45.18;101221.56;5007838;28;20049;-41
2022/05/07 09:40:42;;;;;;;6.18;4.53;;;;;;;22.89;44.75;101228.03;5010031;28;20045;-44
2022/05/07 09:43:10;;;;;;;6.20;4.22;;;;;;;23.07;44.19;101221.22;5020634;28;20107;-41
2022/05/07 09:45:39;;;;;;;7.53;4.07;;;;;;;23.07;43.51;101227.34;5018173;28;20050;-41
2022/05/07 09:48:06;;;;;;;7.03;4.45;;;;;;;23.09;43.72;101225.50;5016000;28;20045;-43
2022/05/07 09:58:51;;;;;;;5.15;2.95;;;;;;;22.12;44.75;101227.91;5015873;28;20049;-43
2022/05/07 10:06:56;;;;;;;7.10;4.55;;;;;;;22.42;44.16;101229.56;5041309;28;20402;-45
2022/05/07 10:12:29;;;;;;;7.40;3.58;;;;;;;22.34;44.45;101228.09;5041160;27;20406;-41
2022/05/07 10:15:15;;;;;;;5.63;3.10;;;;;;;22.19;43.55;101234.72;5018600;28;20424;-44
2022/05/07 10:17:44;;;;;;;6.03;2.80;;;;;;;22.18;45.09;101237.41;5015312;28;20064;-41
2022/05/07 10:20:13;;;;;;;;;;;;;;;22.12;45.33;101232.34;5014894;28;21998;-42
2022/05/07 10:22:40;;;;;;;6.72;3.10;;;;;;;22.27;45.03;101237.13;5012035;28;19988;-40
2022/05/07 10:27:44;;;;;;;7.38;2.72;;;;;;;22.34;43.52;101240.41;5025234;27;20407;-41
2022/05/07 10:35:52;;;;;;;6.15;2.45;;;;;;;21.63;44.63;101228.53;5052509;28;20399;-42
2022/05/07 10:38:37;;;;;;;5.43;3.65;;;;;;;21.82;44.65;101236.75;5074738;28;20499;-43
2022/05/07 10:41:05;;;;;;;5.75;3.03;;;;;;;21.62;44.60;101228.56;5059107;28;20056;-42
2022/05/07 10:43:43;;;;;;;6.47;3.22;;;;;;;21.46;45.11;101234.31;5060894;28;20095;-42
2022/05/07 10:46:14;;;;;;;6.03;3.35;;;;;;;21.37;45.72;101239.81;5060647;28;20049;-42
2022/05/07 10:48:43;;;;;;;6.18;3.75;;;;;;;21.14;45.38;101228.22;5057030;28;20501;-42
2022/05/07 10:56:54;;;;;;;6.20;2.65;;;;;;;20.98;45.50;101228.63;5046443;27;20406;-42
2022/05/07 10:59:22;;;;;;;5.90;2.78;;;;;;;20.72;45.65;101226.66;5008139;28;20049;-43
2022/05/07 11:01:50;;;;;;;4.70;2.67;;;;;;;20.49;45.86;101231.63;5009600;28;20062;-41
2022/05/07 11:04:19;;;;;;;6.18;2.60;;;;;;;20.29;46.01;101237.38;5009700;28;20069;-42
2022/05/07 11:06:48;;;;;;;3.97;2.53;;;;;;;20.14;46.39;101238.63;5010584;28;20087;-41
2022/05/07 11:09:17;;;;;;;5.78;2.97;;;;;;;20.22;46.78;101244.56;5015669;28;20104;-41
2022/05/07 11:11:45;;;;;;;5.50;2.70;;;;;;;20.27;47.53;101241.81;5010211;28;20049;-42
2022/05/07 11:16:58;;;;;;;5.50;3.45;;;;;;;20.25;47.67;101249.75;5000425;27;20419;-42
2022/05/07 11:19:28;;;;;;;5.05;2.92;;;;;;;20.61;47.33;101237.47;4997810;28;20046;-42
2022/05/07 11:21:56;;;;;;;5.05;2.17;;;;;;;21.02;46.36;101239.94;4997435;28;20113;-41
2022/05/07 11:24:25;;;;;;;4.82;3.08;;;;;;;21.26;45.95;101229.59;4997289;28;20560;-41
2022/05/07 11:26:55;;;;;;;3.63;2.60;;;;;;;21.24;45.26;101237.56;4996690;28;20532;-42
2022/05/07 11:29:23;;;;;;;6.75;3.03;;;;;;;21.27;45.90;101240.09;4997759;28;20453;-41
2022/05/07 11:31:58;;;;;;;6.05;3.20;;;;;;;21.18;45.84;101243.84;4997253;28;20518;-41
2022/05/07 11:34:31;;;;;;;5.20;3.58;;;;;;;21.20;45.27;101243.81;4994615;28;20061;-41
2022/05/07 11:37:19;;;;;;;3.50;2.20;;;;;;;21.05;44.91;101253.03;4996461;28;20112;-42
2022/05/07 11:42:44;;;;;;;7.00;4.40;;;;;;;20.53;45.17;101259.59;5029519;28;20411;-40
2022/05/07 11:45:26;;;;;;;6.13;4.40;;;;;;;20.30;46.21;101252.28;5018472;28;20058;-42
2022/05/07 11:50:41;;;;;;;5.25;3.17;;;;;;;20.09;46.45;101254.50;5037403;28;20725;-43
2022/05/07 11:53:35;;;;;;;5.35;2.83;;;;;;;20.03;47.30;101260.78;5006453;28;20489;-44
2022/05/07 11:56:10;;;;;;;4.88;2.80;;;;;;;20.20;47.07;101256.03;5006140;28;20568;-51
2022/05/07 11:58:42;;;;;;;5.38;2.63;;;;;;;20.38;47.38;101249.44;5002776;28;20104;-41
2022/05/07 12:01:21;;;;;;;4.93;2.45;;;;;;;20.52;46.65;101249.97;4998808;28;20539;-41
2022/05/07 12:03:50;;;;;;;4.95;2.80;;;;;;;20.73;46.33;101250.31;4994264;28;20041;-41
2022/05/07 12:09:11;;;;;;;7.05;4.60;;;;;;;21.16;44.74;101243.06;5046408;27;20398;-42
2022/05/07 12:11:37;;;;;;;;;;;;;;;20.80;45.39;101251.88;5011180;28;20096;-42
2022/05/07 12:14:04;;;;;;;5.43;4.68;;;;;;;20.76;45.76;101244.97;5009699;28;19988;-42
2022/05/07 12:19:34;;;;;;;5.43;4.13;;;;;;;21.04;46.13;101257.41;5013252;28;20137;-42
2022/05/07 12:30:22;;;;;;;5.63;4.07;;;;;;;21.38;44.69;101257.38;5010937;28;20050;-42
2022/05/07 12:32:50;;;;;;;7.50;5.43;;;;;;;21.41;44.54;101252.03;5010115;28;20543;-41
2022/05/07 12:35:19;;;;;;;6.30;4.25;;;;;;;21.30;44.94;101244.41;5010448;28;20049;-43
2022/05/07 12:37:45;;;;;;;5.40;4.28;;;;;;;21.36;44.53;101249.53;5009809;28;20465;-41
2022/05/07 12:40:12;;;;;;;4.07;3.47;;;;;;;21.39;43.92;101240.66;5011442;28;20124;-40
2022/05/07 12:42:39;;;;;;;3.95;3.33;;;;;;;21.47;44.67;101241.28;5015005;28;20806;-43
2022/05/07 12:45:09;;;;;;;5.45;4.10;;;;;;;21.50;44.50;101249.13;5008580;28;20054;-42
2022/05/07 12:47:35;;;;;;;6.05;4.95;;;;;;;21.31;44.51;101248.81;5012527;28;20038;-44
2022/05/07 12:50:02;;;;;;;5.72;4.57;;;;;;;21.14;45.11;101244.00;5010218;28;20045;-41
2022/05/07 12:52:29;;;;;;;5.75;4.70;;;;;;;21.04;45.25;101249.50;5008770;28;20042;-41
2022/05/07 12:54:56;;;;;;;4.88;4.45;;;;;;;20.96;45.28;101251.50;5011524;28;20061;-41
2022/05/07 12:57:23;;;;;;;5.32;4.82;;;;;;;20.87;45.10;101254.38;5000340;28;20356;-44
2022/05/07 12:59:49;;;;;;;5.75;5.15;;;;;;;20.81;45.46;101256.22;5007186;28;20096;-41